This is the latest recevied weather packets stored in our database for station/object K5NWZ. If no packets are shown the sender has not sent any weather packets the latest 10 day(s).
| Time | Temp. | Humidity | Pressure | Rain* | Wind** | Luminosity | Snow |
|---|---|---|---|---|---|---|---|
| 1778109377 | 5.56° C | 60% | 1026.9 hPa | 0 mm | - | 319 W/m² | - |
| 1778109076 | 5.56° C | 61% | 1027.2 hPa | 0 mm | - | 332 W/m² | - |
| 1778108772 | 6.11° C | 61% | 1026.9 hPa | 0 mm | - | 346 W/m² | - |
| 1778108469 | 5.56° C | 60% | 1027 hPa | 0 mm | - | 358 W/m² | - |
| 1778108166 | 5.56° C | 61% | 1026.9 hPa | 0 mm | - | 378 W/m² | - |
| 1778107862 | 5.56° C | 59% | 1026.9 hPa | 0 mm | - | 390 W/m² | - |
| 1778107559 | 6.11° C | 62% | 1026.9 hPa | 0 mm | - | 404 W/m² | - |
| 1778107256 | 5.56° C | 62% | 1026.8 hPa | 0 mm | - | 417 W/m² | - |
| 1778106951 | 6.67° C | 60% | 1027 hPa | 0 mm | - | 435 W/m² | - |
| 1778106648 | 6.11° C | 59% | 1027.2 hPa | 0 mm | - | 448 W/m² | - |
| 1778106345 | 6.11° C | 58% | 1027.3 hPa | 0 mm | - | 466 W/m² | - |
| 1778106041 | 5.56° C | 60% | 1027.2 hPa | 0 mm | - | 480 W/m² | - |
| 1778105739 | 5.56° C | 61% | 1027 hPa | 0 mm | - | 494 W/m² | - |
| 1778105437 | 5.56° C | 60% | 1027.3 hPa | 0 mm | - | 508 W/m² | - |
| 1778105132 | 6.11° C | 58% | 1027.3 hPa | 0 mm | - | 520 W/m² | - |
| 1778104828 | 5° C | 60% | 1027.3 hPa | 0 mm | - | 531 W/m² | - |
| 1778104525 | 6.11° C | 59% | 1027.5 hPa | 0 mm | - | 555 W/m² | - |
| 1778104221 | 5.56° C | 62% | 1027.6 hPa | 0 mm | - | 567 W/m² | - |
| 1778103918 | 5.56° C | 61% | 1027.9 hPa | 0 mm | - | 588 W/m² | - |
| 1778103615 | 5.56° C | 62% | 1027.7 hPa | 0 mm | - | 594 W/m² | - |
| 1778103313 | 5.56° C | 63% | 1027.9 hPa | 0 mm | - | 620 W/m² | - |
| 1778103010 | 4.44° C | 67% | 1027.9 hPa | 0 mm | - | 642 W/m² | - |
| 1778102706 | 5° C | 64% | 1027.9 hPa | 0 mm | - | 681 W/m² | - |
| 1778102401 | 5° C | 64% | 1028.3 hPa | 0 mm | - | 690 W/m² | - |
| 1778102097 | 5° C | 62% | 1028.4 hPa | 0 mm | - | 225 W/m² | - |
* Rain latest hour (hover to see other rain measurements)
** Current wind speed in m/s (hover to see current wind gust speed)